Time;durP1;ratioP1;P1;durP2;ratioP2;P2;SDS_P1;SDS_P2;PMS_P1;PMS_P2;Temp;Humidity;BMP_temperature;BMP_pressure;BME280_temperature;BME280_humidity;BME280_pressure;Samples;Min_cycle;Max_cycle;Signal;HPM_P1;HPM_P2
2021/12/15 00:02:19;;;;;;;37.37;22.50;;;6.50;99.90;;;;;;5066756;28;20474;-65
2021/12/15 00:04:47;;;;;;;39.90;24.80;;;6.40;99.90;;;;;;5067114;28;21159;-65
2021/12/15 00:07:15;;;;;;;40.63;24.00;;;6.40;99.90;;;;;;5066171;28;20958;-65
2021/12/15 00:09:42;;;;;;;41.37;24.40;;;6.40;99.90;;;;;;5067122;28;20955;-65
2021/12/15 00:12:13;;;;;;;40.00;23.20;;;6.40;99.90;;;;;;5066411;28;21069;-67
2021/12/15 00:14:41;;;;;;;40.77;23.70;;;6.40;99.90;;;;;;5056365;28;20452;-66
2021/12/15 00:17:09;;;;;;;44.37;22.83;;;6.40;99.90;;;;;;5047150;28;20483;-66
2021/12/15 00:19:36;;;;;;;37.60;24.10;;;6.40;99.90;;;;;;5047093;28;20456;-67
2021/12/15 00:22:04;;;;;;;36.13;23.87;;;6.40;99.90;;;;;;5048441;28;20483;-66
2021/12/15 00:24:32;;;;;;;39.63;23.97;;;6.40;99.90;;;;;;5048162;28;20445;-66
2021/12/15 00:26:59;;;;;;;41.20;23.90;;;6.40;99.90;;;;;;5048252;28;20467;-65
2021/12/15 00:29:27;;;;;;;38.50;22.83;;;6.40;99.90;;;;;;5048242;28;21045;-67
2021/12/15 00:31:54;;;;;;;45.83;28.13;;;6.40;99.90;;;;;;5048212;28;20460;-67
2021/12/15 00:34:22;;;;;;;42.70;25.90;;;6.30;99.90;;;;;;5047679;28;20453;-67
2021/12/15 00:36:49;;;;;;;43.47;26.97;;;6.30;99.90;;;;;;5048041;28;20455;-66
2021/12/15 00:39:18;;;;;;;42.40;24.23;;;6.40;99.90;;;;;;5047754;28;20448;-66
2021/12/15 00:41:47;;;;;;;43.13;26.30;;;6.40;99.90;;;;;;5047913;28;20468;-66
2021/12/15 00:44:15;;;;;;;41.37;25.17;;;6.30;99.90;;;;;;5047489;28;20882;-68
2021/12/15 00:46:43;;;;;;;48.83;26.17;;;6.30;99.90;;;;;;5047264;28;21304;-66
2021/12/15 00:49:11;;;;;;;41.30;27.60;;;6.30;99.90;;;;;;5047702;28;20460;-67
2021/12/15 00:51:38;;;;;;;46.00;26.53;;;6.40;99.90;;;;;;5047930;28;20471;-66
2021/12/15 00:54:06;;;;;;;42.60;25.60;;;6.30;99.90;;;;;;5047975;28;20448;-66
2021/12/15 00:56:34;;;;;;;43.13;26.20;;;6.30;99.90;;;;;;5047110;28;20452;-66
2021/12/15 00:59:03;;;;;;;49.93;26.07;;;6.40;99.90;;;;;;5047608;28;20518;-68
2021/12/15 01:01:30;;;;;;;42.73;25.53;;;6.40;99.90;;;;;;5047553;28;20483;-66
2021/12/15 01:03:57;;;;;;;40.40;25.20;;;6.40;99.90;;;;;;5047718;28;20506;-66
2021/12/15 01:06:25;;;;;;;47.77;25.17;;;6.40;99.90;;;;;;5047026;28;21024;-66
2021/12/15 01:08:58;;;;;;;41.07;24.93;;;6.40;99.90;;;;;;5047775;28;20444;-66
2021/12/15 01:11:34;;;;;;;45.90;25.40;;;6.50;99.90;;;;;;5047404;28;20483;-66
2021/12/15 01:19:51;;;;;;;37.27;24.73;;;6.40;99.90;;;;;;5047570;28;20428;-65
2021/12/15 01:22:22;;;;;;;43.03;25.10;;;6.40;99.90;;;;;;5047529;28;20588;-66
2021/12/15 01:24:49;;;;;;;43.93;28.17;;;6.40;99.90;;;;;;5047527;28;20437;-66
2021/12/15 01:27:16;;;;;;;46.10;26.10;;;6.40;99.90;;;;;;5047285;28;20444;-66
2021/12/15 01:29:45;;;;;;;38.57;24.47;;;6.40;99.90;;;;;;5047518;28;20444;-66
2021/12/15 01:32:12;;;;;;;41.60;26.83;;;6.40;99.90;;;;;;5047346;28;20476;-66
2021/12/15 01:34:39;;;;;;;37.90;24.53;;;6.40;99.90;;;;;;5047799;28;20455;-66
2021/12/15 01:37:07;;;;;;;42.83;25.50;;;6.50;99.90;;;;;;5047458;28;20444;-66
2021/12/15 01:39:34;;;;;;;42.00;25.43;;;6.40;99.90;;;;;;5048443;28;20950;-67
2021/12/15 01:42:01;;;;;;;37.63;25.83;;;6.40;99.90;;;;;;5048576;28;20813;-66
2021/12/15 01:47:14;;;;;;;41.57;25.10;;;6.30;99.90;;;;;;5049158;28;20407;-66
2021/12/15 01:49:44;;;;;;;40.73;25.13;;;6.40;99.90;;;;;;5051615;28;20479;-66
2021/12/15 01:52:15;;;;;;;39.37;24.60;;;6.40;99.90;;;;;;5051757;28;20466;-65
2021/12/15 01:54:45;;;;;;;45.93;26.70;;;6.40;99.90;;;;;;5051367;28;20449;-66
2021/12/15 01:57:13;;;;;;;38.30;24.27;;;6.40;99.90;;;;;;5051018;28;20451;-66
2021/12/15 01:59:43;;;;;;;41.00;26.43;;;6.30;99.90;;;;;;5051504;28;20451;-66
2021/12/15 02:02:10;;;;;;;41.60;24.87;;;6.30;99.90;;;;;;5051254;28;20460;-67
2021/12/15 02:04:39;;;;;;;41.00;25.03;;;6.40;99.90;;;;;;5051209;28;20436;-66
2021/12/15 02:07:11;;;;;;;39.40;24.97;;;6.50;99.90;;;;;;5051104;28;20486;-66
2021/12/15 02:12:22;;;;;;;40.63;23.97;;;6.50;99.90;;;;;;5038121;28;20518;-67
2021/12/15 02:14:50;;;;;;;40.70;25.33;;;6.50;99.90;;;;;;5050795;28;20445;-66
2021/12/15 02:17:17;;;;;;;43.40;26.03;;;6.50;99.90;;;;;;5050733;28;20448;-67
2021/12/15 02:19:45;;;;;;;38.73;23.67;;;6.50;99.90;;;;;;5050974;28;20440;-67
2021/12/15 02:22:14;;;;;;;42.97;25.77;;;6.50;99.90;;;;;;5050585;28;20483;-67
2021/12/15 02:24:43;;;;;;;43.27;27.30;;;6.50;99.90;;;;;;5051029;28;20531;-67
2021/12/15 02:27:12;;;;;;;42.10;25.17;;;6.50;99.90;;;;;;5050651;28;20575;-66
2021/12/15 02:29:42;;;;;;;40.40;26.20;;;6.50;99.90;;;;;;5050815;28;20476;-67
2021/12/15 02:32:17;;;;;;;43.50;27.07;;;6.50;99.90;;;;;;5050548;28;20541;-67
2021/12/15 02:34:57;;;;;;;43.87;25.70;;;6.50;99.90;;;;;;5050445;28;20535;-66
2021/12/15 02:37:25;;;;;;;44.77;26.07;;;6.50;99.90;;;;;;5050439;28;20447;-66
2021/12/15 02:39:54;;;;;;;44.63;26.10;;;6.40;99.90;;;;;;5051192;28;20459;-66
2021/12/15 02:42:25;;;;;;;38.07;24.33;;;6.50;99.90;;;;;;5050335;28;20547;-67
2021/12/15 02:44:52;;;;;;;40.90;25.80;;;6.60;99.90;;;;;;5050595;28;20989;-66
2021/12/15 02:47:21;;;;;;;40.97;24.27;;;6.60;99.90;;;;;;5050137;28;20480;-66
2021/12/15 02:49:50;;;;;;;39.97;23.30;;;6.60;99.90;;;;;;5050557;28;20456;-65
2021/12/15 02:52:17;;;;;;;41.53;26.10;;;6.70;99.90;;;;;;5050476;28;20472;-66
2021/12/15 02:54:45;;;;;;;43.20;25.63;;;6.60;99.90;;;;;;5050654;28;20451;-67
2021/12/15 02:57:13;;;;;;;39.63;25.67;;;6.50;99.90;;;;;;5049787;28;20437;-66
2021/12/15 02:59:51;;;;;;;37.50;24.17;;;6.60;99.90;;;;;;5050594;28;20497;-68
2021/12/15 03:02:43;;;;;;;41.83;26.07;;;6.70;99.90;;;;;;5050733;28;20465;-67
2021/12/15 03:05:15;;;;;;;38.67;24.80;;;6.60;99.90;;;;;;5050618;28;20451;-67
2021/12/15 03:07:48;;;;;;;39.90;24.77;;;6.60;99.90;;;;;;5050073;28;20441;-69
2021/12/15 03:15:40;;;;;;;41.40;23.83;;;6.60;99.90;;;;;;5050164;28;20443;-64
2021/12/15 03:18:10;;;;;;;42.87;25.40;;;6.60;99.90;;;;;;5049891;28;20479;-63
2021/12/15 03:20:42;;;;;;;41.37;25.77;;;6.60;99.90;;;;;;5050025;28;20447;-64
2021/12/15 03:23:13;;;;;;;43.93;26.20;;;6.50;99.90;;;;;;5049841;28;20448;-65
2021/12/15 03:25:41;;;;;;;39.73;24.10;;;6.50;99.90;;;;;;5049803;28;20568;-64
2021/12/15 03:34:09;;;;;;;47.87;23.90;;;6.50;99.90;;;;;;4987825;28;20414;-67
2021/12/15 03:37:05;;;;;;;43.47;25.93;;;6.50;99.90;;;;;;5029411;28;20441;-66
2021/12/15 03:39:38;;;;;;;40.00;24.93;;;6.50;99.90;;;;;;5049455;28;20436;-67
2021/12/15 03:42:09;;;;;;;43.27;25.93;;;6.50;99.90;;;;;;5049605;28;20449;-68
2021/12/15 03:44:40;;;;;;;44.40;26.07;;;6.50;99.90;;;;;;5049463;28;20507;-65
2021/12/15 03:47:16;;;;;;;42.23;26.73;;;6.50;99.90;;;;;;5049241;28;20477;-66
2021/12/15 03:49:43;;;;;;;38.63;24.87;;;6.50;99.90;;;;;;5049416;28;20441;-66
2021/12/15 03:52:12;;;;;;;44.03;26.60;;;6.50;99.90;;;;;;5049151;28;20479;-66
2021/12/15 03:54:39;;;;;;;40.27;24.70;;;6.50;99.90;;;;;;5049538;28;20445;-66
2021/12/15 03:57:07;;;;;;;38.27;23.90;;;6.60;99.90;;;;;;5049022;28;20443;-66
2021/12/15 03:59:40;;;;;;;35.53;22.43;;;6.60;99.90;;;;;;5049168;28;21095;-66
2021/12/15 04:02:07;;;;;;;40.43;26.70;;;6.60;99.90;;;;;;5049244;28;20505;-67
2021/12/15 04:04:34;;;;;;;39.03;23.80;;;6.60;99.90;;;;;;5048942;28;20447;-67
2021/12/15 04:07:00;;;;;;;44.77;25.90;;;6.50;99.90;;;;;;5048770;28;20484;-67
2021/12/15 04:09:27;;;;;;;41.43;27.67;;;6.50;99.90;;;;;;5048070;28;20441;-66
2021/12/15 04:11:55;;;;;;;35.77;24.57;;;6.60;99.90;;;;;;5048680;28;20460;-65
2021/12/15 04:14:28;;;;;;;35.27;21.73;;;6.60;99.90;;;;;;5048991;28;20516;-67
2021/12/15 04:17:01;;;;;;;36.37;23.10;;;6.60;99.90;;;;;;5048415;28;20544;-66
2021/12/15 04:19:29;;;;;;;34.30;22.33;;;6.60;99.90;;;;;;5048999;28;20440;-67
2021/12/15 04:21:56;;;;;;;37.40;22.40;;;6.70;99.90;;;;;;5048716;28;20479;-67
2021/12/15 04:24:27;;;;;;;41.13;22.90;;;6.60;99.90;;;;;;5048993;28;20447;-66
2021/12/15 04:26:55;;;;;;;38.90;25.20;;;6.60;99.90;;;;;;5048215;28;20476;-66
2021/12/15 04:29:24;;;;;;;38.63;23.50;;;6.60;99.90;;;;;;5048459;28;20452;-65
2021/12/15 04:31:54;;;;;;;37.23;23.73;;;6.70;99.90;;;;;;5048570;28;20456;-66
2021/12/15 04:34:21;;;;;;;39.77;24.20;;;6.70;99.90;;;;;;5048803;28;21102;-66
2021/12/15 04:36:50;;;;;;;35.30;24.60;;;6.70;99.90;;;;;;5049178;28;20446;-67
2021/12/15 04:39:20;;;;;;;41.53;24.23;;;6.70;99.90;;;;;;5050819;28;20448;-67
2021/12/15 04:41:49;;;;;;;39.23;24.00;;;6.70;99.90;;;;;;5050163;28;20476;-69
2021/12/15 04:44:17;;;;;;;35.20;22.90;;;6.70;99.90;;;;;;5050888;28;20476;-67
2021/12/15 04:46:50;;;;;;;35.17;21.43;;;6.70;99.90;;;;;;5050446;28;20484;-67
2021/12/15 04:49:19;;;;;;;37.43;21.60;;;6.60;99.90;;;;;;5050523;28;20945;-67
2021/12/15 04:51:47;;;;;;;39.00;24.83;;;6.60;99.90;;;;;;5048377;28;20468;-66
2021/12/15 04:54:14;;;;;;;35.37;23.00;;;6.60;99.90;;;;;;5048145;28;20971;-66
2021/12/15 04:56:41;;;;;;;35.83;23.10;;;6.60;99.90;;;;;;5047667;28;20432;-66
2021/12/15 04:59:08;;;;;;;34.00;22.60;;;6.70;99.90;;;;;;5048317;28;20825;-67
2021/12/15 05:01:36;;;;;;;31.90;21.50;;;6.70;99.90;;;;;;5047983;28;20831;-68
2021/12/15 05:04:05;;;;;;;32.20;19.73;;;6.70;99.90;;;;;;5047827;28;20455;-67
2021/12/15 05:06:32;;;;;;;31.60;21.57;;;6.70;99.90;;;;;;5047371;28;20476;-66
2021/12/15 05:09:00;;;;;;;35.47;21.87;;;6.70;99.90;;;;;;5047795;28;20463;-68
2021/12/15 05:11:27;;;;;;;32.97;21.50;;;6.70;99.90;;;;;;5047940;28;20470;-67
2021/12/15 05:13:54;;;;;;;37.27;24.00;;;6.70;99.90;;;;;;5048053;28;20447;-67
2021/12/15 05:16:21;;;;;;;31.43;21.27;;;6.70;99.90;;;;;;5047587;28;20444;-67
2021/12/15 05:18:49;;;;;;;35.13;22.23;;;6.70;99.90;;;;;;5047788;28;20956;-67
2021/12/15 05:21:17;;;;;;;33.90;22.07;;;6.70;99.90;;;;;;5047530;28;20472;-68
2021/12/15 05:23:49;;;;;;;31.50;22.67;;;6.70;99.90;;;;;;5047460;28;20444;-67
2021/12/15 05:26:16;;;;;;;38.70;25.20;;;6.70;99.90;;;;;;5047631;28;20824;-66
2021/12/15 05:28:43;;;;;;;35.27;21.87;;;6.60;99.90;;;;;;5047911;28;20444;-67
2021/12/15 05:31:10;;;;;;;34.93;23.07;;;6.70;99.90;;;;;;5047669;28;20982;-66
2021/12/15 05:33:37;;;;;;;34.93;22.60;;;6.60;99.90;;;;;;5047874;28;20445;-67
2021/12/15 05:36:05;;;;;;;37.50;23.33;;;6.60;99.90;;;;;;5047362;28;20437;-69
2021/12/15 05:38:34;;;;;;;37.80;23.50;;;6.60;99.90;;;;;;5064566;28;20436;-65
2021/12/15 05:41:01;;;;;;;31.97;21.90;;;6.70;99.90;;;;;;5067421;28;20459;-65
2021/12/15 05:43:28;;;;;;;37.23;23.33;;;6.70;99.90;;;;;;5067334;28;20436;-66
2021/12/15 05:45:55;;;;;;;34.43;21.63;;;6.70;99.90;;;;;;5067365;28;20810;-66
2021/12/15 05:48:23;;;;;;;30.80;20.07;;;6.70;99.90;;;;;;5067102;28;20574;-65
2021/12/15 05:50:51;;;;;;;33.30;21.90;;;6.70;99.90;;;;;;5060059;28;20527;-65
2021/12/15 05:53:18;;;;;;;32.20;22.47;;;6.70;99.90;;;;;;5067554;28;20436;-65
2021/12/15 05:55:46;;;;;;;33.73;20.60;;;6.60;99.90;;;;;;5067555;28;20451;-65
2021/12/15 05:58:13;;;;;;;34.50;21.20;;;6.60;99.90;;;;;;5063944;28;20454;-64
2021/12/15 06:00:43;;;;;;;32.50;20.53;;;6.70;99.90;;;;;;5055401;28;20456;-65
2021/12/15 06:03:10;;;;;;;35.43;22.07;;;6.60;99.90;;;;;;5066279;28;20440;-64
2021/12/15 06:05:41;;;;;;;32.17;21.30;;;6.60;99.90;;;;;;5067366;28;20436;-65
2021/12/15 06:08:08;;;;;;;30.90;21.20;;;6.60;99.90;;;;;;5066755;28;21071;-65
2021/12/15 06:10:36;;;;;;;33.63;21.60;;;6.60;99.90;;;;;;5059368;28;20447;-67
2021/12/15 06:13:06;;;;;;;35.73;21.97;;;6.60;99.90;;;;;;5063109;28;20447;-66
2021/12/15 06:15:34;;;;;;;34.10;23.00;;;6.60;99.90;;;;;;5066574;28;20446;-67
2021/12/15 06:18:04;;;;;;;29.60;20.80;;;6.60;99.90;;;;;;5064638;28;20428;-65
2021/12/15 06:20:31;;;;;;;33.83;23.30;;;6.50;99.90;;;;;;5065838;28;20585;-66
2021/12/15 06:23:00;;;;;;;32.27;22.33;;;6.50;99.90;;;;;;5065706;28;20458;-67
2021/12/15 06:25:29;;;;;;;32.70;21.93;;;6.60;99.90;;;;;;5064834;28;20456;-64
2021/12/15 06:27:56;;;;;;;29.93;20.60;;;6.50;99.90;;;;;;5065035;28;20475;-68
2021/12/15 06:30:24;;;;;;;31.70;21.80;;;6.50;99.90;;;;;;5065422;28;20443;-66
2021/12/15 06:32:51;;;;;;;32.50;21.40;;;6.50;99.90;;;;;;5067604;28;20761;-66
2021/12/15 06:35:18;;;;;;;31.30;20.93;;;6.50;99.90;;;;;;5070192;28;20447;-67
2021/12/15 06:37:45;;;;;;;34.53;21.40;;;6.60;99.90;;;;;;5070397;28;20466;-66
2021/12/15 06:40:13;;;;;;;28.90;19.10;;;6.70;99.90;;;;;;5070295;28;20471;-67
2021/12/15 06:42:42;;;;;;;30.53;18.80;;;6.60;99.90;;;;;;5070205;28;20503;-67
2021/12/15 06:45:14;;;;;;;28.10;20.87;;;6.60;99.90;;;;;;5069970;28;20881;-67
2021/12/15 06:58:36;;;;;;;29.77;19.13;;;6.60;99.90;;;;;;5069774;28;20466;-66
2021/12/15 07:01:05;;;;;;;28.30;18.40;;;6.60;99.90;;;;;;5069704;28;20466;-67
2021/12/15 07:03:34;;;;;;;30.23;19.70;;;6.60;99.90;;;;;;5070049;28;20531;-66
2021/12/15 07:06:01;;;;;;;29.20;18.20;;;6.50;99.90;;;;;;5069861;28;20530;-66
2021/12/15 07:08:29;;;;;;;28.47;18.83;;;6.50;99.90;;;;;;5069265;28;20575;-66
2021/12/15 07:10:58;;;;;;;28.43;19.47;;;6.60;99.90;;;;;;5069880;28;20765;-66
2021/12/15 07:13:26;;;;;;;29.70;20.33;;;6.60;99.90;;;;;;5069908;28;20468;-68
2021/12/15 07:15:59;;;;;;;31.10;22.10;;;6.60;99.90;;;;;;5069483;28;20452;-67
2021/12/15 07:18:37;;;;;;;26.30;20.10;;;6.60;99.90;;;;;;5069278;28;20444;-66
2021/12/15 07:21:09;;;;;;;27.80;18.73;;;6.70;99.90;;;;;;5069753;28;20463;-67
2021/12/15 07:23:37;;;;;;;26.63;18.60;;;6.70;99.90;;;;;;5069629;28;20811;-66
2021/12/15 07:26:05;;;;;;;25.20;18.37;;;6.80;99.90;;;;;;5069825;28;20509;-67
2021/12/15 07:28:32;;;;;;;25.10;18.13;;;6.80;99.90;;;;;;5068803;28;20555;-66
2021/12/15 07:30:59;;;;;;;37.20;24.33;;;6.80;99.90;;;;;;5069345;28;20476;-66
2021/12/15 07:33:26;;;;;;;31.43;23.10;;;6.80;99.90;;;;;;5069295;28;20441;-66
2021/12/15 07:35:53;;;;;;;26.00;18.80;;;6.90;99.90;;;;;;5069301;28;20448;-67
2021/12/15 07:38:22;;;;;;;26.83;18.43;;;6.90;99.90;;;;;;5068640;28;20538;-68
2021/12/15 07:40:49;;;;;;;29.30;19.87;;;6.90;99.90;;;;;;5069076;28;20543;-66
2021/12/15 07:43:24;;;;;;;24.50;18.03;;;7.00;99.90;;;;;;5069076;28;20515;-67
2021/12/15 07:45:54;;;;;;;29.90;19.40;;;7.00;99.90;;;;;;5069057;28;20443;-67
2021/12/15 07:48:23;;;;;;;27.30;17.93;;;6.90;99.90;;;;;;5068875;28;20553;-66
2021/12/15 07:50:53;;;;;;;28.63;18.33;;;7.00;99.90;;;;;;5069012;28;20451;-66
2021/12/15 07:53:22;;;;;;;23.70;16.50;;;7.00;99.90;;;;;;5068867;28;20498;-66
2021/12/15 07:55:49;;;;;;;28.33;18.20;;;7.00;99.90;;;;;;5068922;28;20451;-66
2021/12/15 07:58:18;;;;;;;26.47;17.80;;;7.00;99.90;;;;;;5068591;28;20522;-66
2021/12/15 08:00:48;;;;;;;27.63;17.97;;;7.00;99.90;;;;;;5069295;28;20471;-67
2021/12/15 08:03:16;;;;;;;24.50;18.67;;;7.00;99.90;;;;;;5068817;28;20442;-66
2021/12/15 08:05:44;;;;;;;22.67;17.17;;;7.10;99.90;;;;;;5068913;28;20432;-67
2021/12/15 08:08:12;;;;;;;26.23;17.37;;;7.10;99.90;;;;;;5068281;28;20896;-66
2021/12/15 08:10:41;;;;;;;25.20;17.10;;;7.10;99.90;;;;;;5068690;28;20547;-67
2021/12/15 08:13:08;;;;;;;23.87;16.83;;;7.10;99.90;;;;;;5068572;28;20471;-68
2021/12/15 08:15:35;;;;;;;23.40;15.83;;;7.10;99.90;;;;;;5068347;28;20482;-66
2021/12/15 08:18:02;;;;;;;22.43;14.60;;;7.10;99.90;;;;;;5067952;28;20546;-67
2021/12/15 08:20:32;;;;;;;17.00;13.40;;;7.20;99.90;;;;;;5068149;28;20539;-66
2021/12/15 08:23:00;;;;;;;15.23;12.67;;;7.20;99.90;;;;;;5068220;28;20447;-66
2021/12/15 08:25:27;;;;;;;18.80;15.30;;;7.20;99.90;;;;;;5068470;28;20538;-68
2021/12/15 08:27:56;;;;;;;16.10;13.10;;;7.30;99.90;;;;;;5067881;28;20505;-67
2021/12/15 08:30:27;;;;;;;16.30;13.50;;;7.30;99.90;;;;;;5068049;28;20571;-67
2021/12/15 08:32:57;;;;;;;17.87;13.63;;;7.30;99.90;;;;;;5068106;28;20463;-67
2021/12/15 08:35:27;;;;;;;18.40;14.30;;;7.30;99.90;;;;;;5067830;28;20933;-65
2021/12/15 08:37:55;;;;;;;20.47;15.20;;;7.40;99.90;;;;;;5067924;28;20431;-65
2021/12/15 08:40:24;;;;;;;18.20;14.03;;;7.40;99.90;;;;;;5068506;28;20450;-65
2021/12/15 08:42:51;;;;;;;18.27;13.83;;;7.50;99.90;;;;;;5068226;28;20977;-65
2021/12/15 08:45:20;;;;;;;16.40;13.70;;;7.50;99.90;;;;;;5068285;28;20447;-65
2021/12/15 08:47:47;;;;;;;16.27;14.07;;;7.50;99.90;;;;;;5067720;28;20559;-65
2021/12/15 08:50:18;;;;;;;18.43;13.50;;;7.60;99.90;;;;;;5068589;28;20538;-65
2021/12/15 08:52:45;;;;;;;15.90;13.30;;;7.60;99.90;;;;;;5068220;28;20558;-65
2021/12/15 08:55:12;;;;;;;16.40;12.87;;;7.60;99.90;;;;;;5067206;28;21025;-66
2021/12/15 08:57:47;;;;;;;16.40;11.80;;;7.70;99.90;;;;;;5067653;28;20819;-65
2021/12/15 09:00:16;;;;;;;13.83;11.80;;;7.70;99.90;;;;;;5066941;28;20447;-66
2021/12/15 09:02:45;;;;;;;15.00;11.87;;;7.80;99.90;;;;;;5066979;28;20484;-65
2021/12/15 09:05:12;;;;;;;15.17;11.83;;;7.80;99.90;;;;;;5067338;28;21029;-66
2021/12/15 09:07:43;;;;;;;14.90;11.83;;;7.90;99.90;;;;;;5067941;28;21402;-66
2021/12/15 09:10:11;;;;;;;17.90;12.37;;;7.90;99.90;;;;;;5067565;28;20424;-66
2021/12/15 09:12:38;;;;;;;14.53;12.20;;;7.90;99.90;;;;;;5067542;28;20456;-66
2021/12/15 09:15:07;;;;;;;16.23;12.17;;;8.00;99.90;;;;;;5067651;28;20452;-65
2021/12/15 09:17:34;;;;;;;15.90;12.10;;;8.00;99.90;;;;;;5067490;28;20444;-67
2021/12/15 09:20:05;;;;;;;15.60;12.20;;;8.00;99.90;;;;;;5067398;28;20530;-65
2021/12/15 09:22:31;;;;;;;15.07;11.90;;;8.00;99.90;;;;;;5067076;28;20915;-65
2021/12/15 09:24:58;;;;;;;17.60;13.20;;;8.10;99.90;;;;;;5067676;28;20448;-66
2021/12/15 09:27:25;;;;;;;12.03;10.80;;;8.20;99.90;;;;;;5067194;28;20504;-65
2021/12/15 09:29:52;;;;;;;15.67;13.13;;;8.20;99.90;;;;;;5067407;28;20479;-66
2021/12/15 09:32:19;;;;;;;14.23;11.23;;;8.30;99.90;;;;;;5067450;28;20478;-65
2021/12/15 09:34:47;;;;;;;13.17;10.50;;;8.20;99.90;;;;;;5067230;28;20447;-66
2021/12/15 09:37:18;;;;;;;14.97;12.30;;;8.30;99.90;;;;;;5066827;28;20984;-65
2021/12/15 09:39:44;;;;;;;13.93;11.17;;;8.30;99.90;;;;;;5067346;28;20436;-66
2021/12/15 09:42:16;;;;;;;11.93;10.20;;;8.30;99.90;;;;;;5067263;28;20558;-65
2021/12/15 09:44:43;;;;;;;13.80;10.00;;;8.30;99.90;;;;;;5067071;28;20483;-65
2021/12/15 09:47:34;;;;;;;12.53;11.23;;;8.40;99.90;;;;;;5066803;28;20443;-66
2021/12/15 10:03:55;;;;;;;12.07;9.80;;;8.40;99.90;;;;;;5067191;28;20419;-65
2021/12/15 10:06:33;;;;;;;11.77;9.60;;;8.30;99.90;;;;;;5066646;28;20518;-65
2021/12/15 10:12:18;;;;;;;14.03;8.20;;;8.40;99.90;;;;;;5070766;28;20447;-65
2021/12/15 10:17:45;;;;;;;10.83;9.73;;;8.20;99.90;;;;;;5070787;28;20783;-65
2021/12/15 10:20:18;;;;;;;11.40;9.03;;;8.30;99.90;;;;;;5070754;28;20438;-65
2021/12/15 10:22:48;;;;;;;12.93;10.23;;;8.30;99.90;;;;;;5070179;28;20475;-66
2021/12/15 10:25:20;;;;;;;9.97;8.10;;;8.30;99.90;;;;;;5070866;28;20462;-65
2021/12/15 10:27:50;;;;;;;10.13;9.07;;;8.30;99.90;;;;;;5070267;28;20833;-65
2021/12/15 10:30:24;;;;;;;12.50;9.60;;;8.30;99.90;;;;;;5070691;28;20451;-65
2021/12/15 10:32:55;;;;;;;11.80;9.37;;;8.20;99.90;;;;;;5070515;28;20513;-65
2021/12/15 10:35:27;;;;;;;10.53;9.30;;;8.30;99.90;;;;;;5070216;28;20969;-65
2021/12/15 10:38:21;;;;;;;11.10;9.70;;;8.20;99.90;;;;;;5070169;28;20436;-66
2021/12/15 10:41:07;;;;;;;12.27;9.43;;;8.30;99.90;;;;;;5070061;28;20443;-65
2021/12/15 10:43:38;;;;;;;11.57;9.17;;;8.30;99.90;;;;;;5070062;28;20431;-65
2021/12/15 10:46:08;;;;;;;9.70;8.03;;;8.40;99.90;;;;;;5070287;28;20542;-65
2021/12/15 10:48:45;;;;;;;11.83;9.40;;;8.40;99.90;;;;;;5070031;28;20479;-66
2021/12/15 10:51:32;;;;;;;9.73;7.90;;;8.40;99.90;;;;;;5069958;28;20972;-66
2021/12/15 10:54:01;;;;;;;9.70;8.00;;;8.40;99.90;;;;;;5070074;28;20526;-66
2021/12/15 10:56:32;;;;;;;10.30;8.57;;;8.30;99.90;;;;;;5069671;28;20536;-66
2021/12/15 10:59:03;;;;;;;10.33;9.23;;;8.30;99.90;;;;;;5070119;28;20449;-65
2021/12/15 11:01:52;;;;;;;9.23;7.80;;;8.30;99.90;;;;;;5069697;28;20562;-67
2021/12/15 11:04:30;;;;;;;8.90;6.87;;;8.40;99.90;;;;;;5069705;28;20440;-65
2021/12/15 11:07:10;;;;;;;7.07;6.30;;;8.30;99.90;;;;;;5069657;28;20435;-66
2021/12/15 11:09:39;;;;;;;7.73;6.33;;;8.30;99.90;;;;;;5069822;28;20574;-66
2021/12/15 11:12:11;;;;;;;8.47;5.97;;;8.20;99.90;;;;;;5069992;28;20499;-65
2021/12/15 11:14:40;;;;;;;7.67;5.87;;;8.10;99.90;;;;;;5069613;28;20511;-66
2021/12/15 11:17:12;;;;;;;6.60;5.90;;;8.10;99.90;;;;;;5070377;28;20542;-67
2021/12/15 11:19:42;;;;;;;6.40;5.60;;;8.10;99.90;;;;;;5069803;28;20788;-66
2021/12/15 11:22:31;;;;;;;5.67;5.17;;;8.10;99.90;;;;;;5069863;28;20558;-66
2021/12/15 11:24:58;;;;;;;6.93;5.80;;;8.00;99.90;;;;;;5070063;28;20447;-66
2021/12/15 11:27:27;;;;;;;6.23;5.40;;;8.00;99.90;;;;;;5069623;28;20450;-67
2021/12/15 11:29:54;;;;;;;8.27;6.30;;;8.10;99.90;;;;;;5069319;28;20479;-66
2021/12/15 11:32:43;;;;;;;5.43;4.93;;;8.10;99.90;;;;;;5069392;28;20471;-66
2021/12/15 11:35:15;;;;;;;5.20;4.70;;;8.10;99.90;;;;;;5069348;28;20950;-66
2021/12/15 11:37:57;;;;;;;5.80;4.97;;;8.10;99.90;;;;;;5069209;28;20459;-65
2021/12/15 11:40:30;;;;;;;5.50;4.53;;;8.10;99.90;;;;;;5069530;28;20803;-66
2021/12/15 11:42:59;;;;;;;6.10;3.93;;;8.10;99.90;;;;;;5069393;28;20554;-65
2021/12/15 11:45:26;;;;;;;5.33;4.53;;;8.10;99.90;;;;;;5069424;28;20967;-66
2021/12/15 11:48:14;;;;;;;5.70;4.93;;;8.10;99.90;;;;;;5068885;28;20522;-65
2021/12/15 11:50:43;;;;;;;4.93;4.13;;;8.10;99.90;;;;;;5069343;28;20519;-64
2021/12/15 11:53:14;;;;;;;6.40;5.43;;;8.00;99.90;;;;;;5069050;28;21104;-64
2021/12/15 11:55:41;;;;;;;5.10;4.60;;;8.00;99.90;;;;;;5069051;28;20536;-65
2021/12/15 11:58:10;;;;;;;4.80;4.13;;;8.00;99.90;;;;;;5068534;28;20809;-66
2021/12/15 12:00:37;;;;;;;4.53;3.87;;;8.00;99.90;;;;;;5068692;28;20968;-66
2021/12/15 12:03:04;;;;;;;4.97;4.47;;;8.10;99.90;;;;;;5068934;28;20448;-66
2021/12/15 12:05:34;;;;;;;5.10;4.20;;;8.10;99.90;;;;;;5069349;28;20921;-67
2021/12/15 12:08:03;;;;;;;7.47;5.03;;;8.20;99.90;;;;;;5068577;28;20526;-67
2021/12/15 12:10:41;;;;;;;4.13;3.73;;;8.20;99.90;;;;;;5069074;28;20468;-67
2021/12/15 12:13:15;;;;;;;3.97;3.57;;;8.20;99.90;;;;;;5068883;28;20451;-66
2021/12/15 12:15:45;;;;;;;5.07;4.47;;;8.10;99.90;;;;;;5069020;28;20945;-66
2021/12/15 12:18:15;;;;;;;5.00;4.53;;;8.20;99.90;;;;;;5069077;28;20538;-65
2021/12/15 12:20:45;;;;;;;4.97;4.47;;;8.10;99.90;;;;;;5069050;28;20950;-66
2021/12/15 12:23:14;;;;;;;5.00;4.50;;;8.00;99.90;;;;;;5068692;28;20461;-67
2021/12/15 12:25:43;;;;;;;5.70;4.97;;;8.10;99.90;;;;;;5068421;28;20832;-67
2021/12/15 12:28:14;;;;;;;5.00;4.50;;;8.10;99.90;;;;;;5068023;28;20529;-66
2021/12/15 12:30:44;;;;;;;5.23;4.63;;;8.20;99.90;;;;;;5067288;28;20673;-66
2021/12/15 12:33:14;;;;;;;4.83;4.43;;;8.10;99.90;;;;;;5068382;28;20538;-66
2021/12/15 12:35:45;;;;;;;5.80;5.30;;;8.00;99.90;;;;;;5068265;28;20467;-66
2021/12/15 12:38:14;;;;;;;5.47;4.97;;;8.00;99.90;;;;;;5068193;28;20466;-67
2021/12/15 12:40:49;;;;;;;5.80;5.27;;;8.00;99.90;;;;;;5065569;28;20527;-65
2021/12/15 12:43:27;;;;;;;5.57;5.07;;;8.00;99.90;;;;;;5061802;28;21165;-66
2021/12/15 12:46:04;;;;;;;5.67;4.80;;;8.10;99.90;;;;;;5061461;28;20520;-66
2021/12/15 13:00:01;;;;;;;5.43;4.93;;;8.00;99.90;;;;;;4986068;28;20470;-66
2021/12/15 13:02:43;;;;;;;5.20;4.40;;;8.00;99.90;;;;;;5032672;28;20515;-66
2021/12/15 13:05:42;;;;;;;6.07;5.47;;;8.00;99.90;;;;;;5067586;28;20432;-66
2021/12/15 13:08:12;;;;;;;5.40;4.90;;;8.00;99.90;;;;;;5067345;28;20440;-67
2021/12/15 13:11:02;;;;;;;5.20;4.70;;;7.90;99.90;;;;;;5067469;28;20482;-66
2021/12/15 13:13:31;;;;;;;5.10;4.60;;;7.90;99.90;;;;;;5056564;28;20538;-66
2021/12/15 13:16:03;;;;;;;4.37;3.97;;;7.80;99.90;;;;;;5055481;28;20450;-65
2021/12/15 13:18:47;;;;;;;5.00;4.47;;;7.80;99.90;;;;;;5061868;28;20535;-66
2021/12/15 13:21:17;;;;;;;5.27;4.73;;;7.70;99.90;;;;;;5054820;28;20477;-67
2021/12/15 13:23:50;;;;;;;5.43;4.93;;;7.60;99.90;;;;;;5061033;28;20649;-66
2021/12/15 13:29:39;;;;;;;4.97;4.47;;;7.60;99.90;;;;;;5056376;28;20474;-66
2021/12/15 13:32:11;;;;;;;4.40;4.00;;;7.60;99.90;;;;;;5063464;28;20467;-65
2021/12/15 13:34:43;;;;;;;4.10;3.70;;;7.60;99.90;;;;;;5065255;28;20479;-66
2021/12/15 13:37:11;;;;;;;6.20;5.37;;;7.60;99.90;;;;;;5058229;28;20455;-67
2021/12/15 13:39:49;;;;;;;5.83;4.20;;;7.60;99.90;;;;;;5059503;28;21129;-66
2021/12/15 13:42:39;;;;;;;4.23;3.83;;;7.60;99.90;;;;;;5051709;28;21008;-65
2021/12/15 13:45:26;;;;;;;4.50;4.07;;;7.60;99.90;;;;;;5054124;28;21155;-63
2021/12/15 13:47:55;;;;;;;4.70;4.17;;;7.60;99.90;;;;;;5058837;28;20449;-65
2021/12/15 13:50:27;;;;;;;4.40;3.97;;;7.50;99.90;;;;;;5065318;28;21221;-65
2021/12/15 13:52:56;;;;;;;4.47;3.77;;;7.50;99.90;;;;;;5067509;28;20467;-67
2021/12/15 13:55:25;;;;;;;5.73;4.10;;;7.50;99.90;;;;;;5066079;28;20461;-67
2021/12/15 13:57:59;;;;;;;4.00;3.60;;;7.40;99.90;;;;;;5063650;28;20547;-67
2021/12/15 14:00:30;;;;;;;4.40;3.87;;;7.50;99.90;;;;;;5064549;28;20816;-66
2021/12/15 14:03:07;;;;;;;4.47;3.87;;;7.40;99.90;;;;;;5070244;28;20486;-67
2021/12/15 14:05:39;;;;;;;4.13;3.70;;;7.40;99.90;;;;;;5063375;28;20458;-66
2021/12/15 14:08:08;;;;;;;5.17;4.60;;;7.40;99.90;;;;;;5056866;28;20447;-67